Time;durP1;ratioP1;P1;durP2;ratioP2;P2;SDS_P1;SDS_P2;PMS_P1;PMS_P2;Temp;Humidity;BMP_temperature;BMP_pressure;BME280_temperature;BME280_humidity;BME280_pressure;Samples;Min_cycle;Max_cycle;Signal;HPM_P1;HPM_P2
2023/07/08 00:01:21;;;;;;;0.10;0.10;;;;;;;;;;5086673;28;20047;-58
2023/07/08 00:03:47;;;;;;;0.20;0.20;;;;;;;;;;5087243;28;20118;-61
2023/07/08 00:06:15;;;;;;;0.10;0.10;;;;;;;;;;5086397;28;20112;-61
2023/07/08 00:08:41;;;;;;;0.10;0.10;;;;;;;;;;5086474;28;20071;-61
2023/07/08 00:11:11;;;;;;;0.20;0.20;;;;;;;;;;5086695;28;20459;-61
2023/07/08 00:13:36;;;;;;;0.10;0.10;;;;;;;;;;5087317;28;20120;-61
2023/07/08 00:16:02;;;;;;;0.10;0.10;;;;;;;;;;5085586;28;20048;-60
2023/07/08 00:18:27;;;;;;;0.10;0.10;;;;;;;;;;5086472;28;20039;-61
2023/07/08 00:20:53;;;;;;;0.10;0.10;;;;;;;;;;5085100;28;20044;-61
2023/07/08 00:23:21;;;;;;;0.17;0.17;;;;;;;;;;5068869;28;20051;-61
2023/07/08 00:25:47;;;;;;;0.10;0.10;;;;;;;;;;5087252;28;20071;-61
2023/07/08 00:28:14;;;;;;;0.10;0.10;;;;;;;;;;5086794;28;20124;-61
2023/07/08 00:30:40;;;;;;;0.10;0.10;;;;;;;;;;5078043;28;20056;-61
2023/07/08 00:33:06;;;;;;;0.10;0.10;;;;;;;;;;5067220;28;20044;-61
2023/07/08 00:35:33;;;;;;;0.10;0.10;;;;;;;;;;5077330;28;20433;-61
2023/07/08 00:38:02;;;;;;;0.20;0.20;;;;;;;;;;5087120;28;20048;-61
2023/07/08 00:40:29;;;;;;;0.10;0.10;;;;;;;;;;5079598;28;20296;-61
2023/07/08 00:42:55;;;;;;;0.10;0.10;;;;;;;;;;5081548;28;20504;-61
2023/07/08 00:45:29;;;;;;;0.10;0.10;;;;;;;;;;5086452;28;20071;-60
2023/07/08 00:47:56;;;;;;;0.10;0.10;;;;;;;;;;5086996;28;20128;-60
2023/07/08 00:50:21;;;;;;;0.10;0.10;;;;;;;;;;5086770;28;20048;-61
2023/07/08 00:52:47;;;;;;;0.10;0.10;;;;;;;;;;5086683;28;20055;-61
2023/07/08 00:55:13;;;;;;;0.10;0.10;;;;;;;;;;5086612;28;20051;-61
2023/07/08 00:57:41;;;;;;;0.10;0.10;;;;;;;;;;5086361;28;20052;-61
2023/07/08 01:00:10;;;;;;;0.20;0.20;;;;;;;;;;5064627;28;20072;-61
2023/07/08 01:02:40;;;;;;;0.10;0.10;;;;;;;;;;5066276;28;20048;-61
2023/07/08 01:05:10;;;;;;;0.10;0.10;;;;;;;;;;5066222;28;20048;-61
2023/07/08 01:07:36;;;;;;;0.20;0.20;;;;;;;;;;5048237;28;20076;-61
2023/07/08 01:10:04;;;;;;;0.10;0.10;;;;;;;;;;5065456;28;20053;-61
2023/07/08 01:12:31;;;;;;;0.10;0.10;;;;;;;;;;5066001;28;20295;-60
2023/07/08 01:14:57;;;;;;;0.10;0.10;;;;;;;;;;5065809;28;20052;-60
2023/07/08 01:17:23;;;;;;;0.10;0.10;;;;;;;;;;5068536;28;20097;-60
2023/07/08 01:19:49;;;;;;;0.10;0.10;;;;;;;;;;5085282;28;20493;-61
2023/07/08 01:22:14;;;;;;;0.10;0.10;;;;;;;;;;5085988;28;20496;-61
2023/07/08 01:24:42;;;;;;;0.10;0.10;;;;;;;;;;5085656;28;20101;-64
2023/07/08 01:27:09;;;;;;;0.20;0.20;;;;;;;;;;5086354;28;20481;-61
2023/07/08 01:29:35;;;;;;;0.10;0.10;;;;;;;;;;5085415;28;20048;-61
2023/07/08 01:32:02;;;;;;;0.13;0.13;;;;;;;;;;5085796;28;20563;-61
2023/07/08 01:34:28;;;;;;;0.30;0.30;;;;;;;;;;5086440;28;20103;-61
2023/07/08 01:36:55;;;;;;;0.10;0.10;;;;;;;;;;5085629;28;20078;-61
2023/07/08 01:39:21;;;;;;;0.10;0.10;;;;;;;;;;5085537;28;20064;-57
2023/07/08 01:41:47;;;;;;;0.10;0.10;;;;;;;;;;5067614;28;20045;-61
2023/07/08 01:44:29;;;;;;;0.10;0.10;;;;;;;;;;5076356;28;20051;-61
2023/07/08 01:46:57;;;;;;;0.10;0.10;;;;;;;;;;5086119;28;20058;-61
2023/07/08 01:49:22;;;;;;;0.10;0.10;;;;;;;;;;5086132;28;20488;-61
2023/07/08 01:51:48;;;;;;;0.17;0.17;;;;;;;;;;5086255;28;20143;-61
2023/07/08 01:54:14;;;;;;;0.10;0.10;;;;;;;;;;5086473;28;20500;-61
2023/07/08 01:56:39;;;;;;;0.10;0.10;;;;;;;;;;5085826;28;20105;-61
2023/07/08 01:59:05;;;;;;;0.10;0.10;;;;;;;;;;5085421;28;20063;-61
2023/07/08 02:01:30;;;;;;;0.20;0.20;;;;;;;;;;5084942;28;20048;-61
2023/07/08 02:03:56;;;;;;;0.10;0.10;;;;;;;;;;5085713;28;20044;-61
2023/07/08 02:06:21;;;;;;;0.10;0.10;;;;;;;;;;5085740;28;20048;-60
2023/07/08 02:08:47;;;;;;;0.10;0.10;;;;;;;;;;5089367;28;20048;-61
2023/07/08 02:11:12;;;;;;;0.10;0.10;;;;;;;;;;5088603;28;20263;-61
2023/07/08 02:13:38;;;;;;;0.10;0.10;;;;;;;;;;5088948;28;20197;-61
2023/07/08 02:16:05;;;;;;;0.10;0.10;;;;;;;;;;5083629;28;20064;-61
2023/07/08 02:18:32;;;;;;;0.10;0.10;;;;;;;;;;5085641;28;20044;-61
2023/07/08 02:20:57;;;;;;;0.10;0.10;;;;;;;;;;5090028;28;20519;-61
2023/07/08 02:23:24;;;;;;;0.10;0.10;;;;;;;;;;5088712;28;20069;-61
2023/07/08 02:25:51;;;;;;;0.20;0.20;;;;;;;;;;5088995;28;20129;-61
2023/07/08 02:28:17;;;;;;;0.10;0.10;;;;;;;;;;5089628;28;20048;-61
2023/07/08 02:30:42;;;;;;;0.20;0.20;;;;;;;;;;5088483;28;20097;-60
2023/07/08 02:33:09;;;;;;;0.15;0.15;;;;;;;;;;5089765;28;20051;-61
2023/07/08 02:35:35;;;;;;;0.10;0.10;;;;;;;;;;5089273;28;20560;-60
2023/07/08 02:38:00;;;;;;;0.10;0.10;;;;;;;;;;5088863;28;20133;-60
2023/07/08 02:40:26;;;;;;;0.10;0.10;;;;;;;;;;5088607;28;20170;-61
2023/07/08 02:42:52;;;;;;;0.20;0.20;;;;;;;;;;5088864;28;20040;-42
2023/07/08 02:45:18;;;;;;;0.10;0.10;;;;;;;;;;5087908;28;20147;-42
2023/07/08 02:47:43;;;;;;;0.10;0.10;;;;;;;;;;5088415;28;20492;-43
2023/07/08 02:50:10;;;;;;;0.10;0.10;;;;;;;;;;5083915;28;20578;-42
2023/07/08 02:52:35;;;;;;;0.10;0.10;;;;;;;;;;5068994;28;20055;-43
2023/07/08 02:55:01;;;;;;;0.20;0.20;;;;;;;;;;5068452;28;20281;-42
2023/07/08 02:57:27;;;;;;;0.10;0.10;;;;;;;;;;5068445;28;20052;-52
2023/07/08 02:59:52;;;;;;;0.10;0.10;;;;;;;;;;5068338;28;20044;-52
2023/07/08 03:02:18;;;;;;;0.10;0.10;;;;;;;;;;5069077;28;20065;-52
2023/07/08 03:04:43;;;;;;;0.10;0.10;;;;;;;;;;5087891;28;20051;-50
2023/07/08 03:07:11;;;;;;;0.10;0.10;;;;;;;;;;5088255;28;20056;-52
2023/07/08 03:09:37;;;;;;;0.10;0.10;;;;;;;;;;5087598;28;20052;-48
2023/07/08 03:12:03;;;;;;;0.10;0.10;;;;;;;;;;5088176;28;20079;-52
2023/07/08 03:14:28;;;;;;;0.10;0.10;;;;;;;;;;5088180;28;20095;-52
2023/07/08 03:16:54;;;;;;;0.10;0.10;;;;;;;;;;5075826;28;20072;-52
2023/07/08 03:19:19;;;;;;;0.10;0.10;;;;;;;;;;5067786;28;20056;-52
2023/07/08 03:21:45;;;;;;;0.10;0.10;;;;;;;;;;5085114;28;20146;-52
2023/07/08 03:24:11;;;;;;;0.10;0.10;;;;;;;;;;5087654;28;20105;-52
2023/07/08 03:26:37;;;;;;;0.10;0.10;;;;;;;;;;5087829;28;20109;-53
2023/07/08 03:29:03;;;;;;;0.10;0.10;;;;;;;;;;5088201;28;20047;-52
2023/07/08 03:31:28;;;;;;;0.20;0.20;;;;;;;;;;5073974;28;20409;-52
2023/07/08 03:33:54;;;;;;;0.10;0.10;;;;;;;;;;5087751;28;20055;-52
2023/07/08 03:36:22;;;;;;;0.10;0.10;;;;;;;;;;5087476;28;20121;-49
2023/07/08 03:38:49;;;;;;;0.10;0.10;;;;;;;;;;5087095;28;20044;-52
2023/07/08 03:41:15;;;;;;;0.10;0.10;;;;;;;;;;5086607;28;20457;-52
2023/07/08 03:43:41;;;;;;;0.10;0.10;;;;;;;;;;5087659;28;20109;-51
2023/07/08 03:46:09;;;;;;;0.10;0.10;;;;;;;;;;5086728;28;20056;-52
2023/07/08 03:48:35;;;;;;;0.10;0.10;;;;;;;;;;5086844;28;20545;-53
2023/07/08 03:51:00;;;;;;;0.10;0.10;;;;;;;;;;5075246;28;20048;-52
2023/07/08 03:53:26;;;;;;;0.20;0.20;;;;;;;;;;5067380;28;20048;-53
2023/07/08 03:55:51;;;;;;;0.10;0.10;;;;;;;;;;5066799;28;20048;-52
2023/07/08 03:58:17;;;;;;;0.10;0.10;;;;;;;;;;5066740;28;20507;-50
2023/07/08 04:00:43;;;;;;;0.20;0.20;;;;;;;;;;5066515;28;20513;-52
2023/07/08 04:03:10;;;;;;;0.10;0.10;;;;;;;;;;5067048;28;20084;-52
2023/07/08 04:05:36;;;;;;;0.13;0.13;;;;;;;;;;5079753;28;20048;-52
2023/07/08 04:08:01;;;;;;;0.17;0.15;;;;;;;;;;5086783;28;20466;-49
2023/07/08 04:10:27;;;;;;;0.10;0.10;;;;;;;;;;5085774;28;20097;-51
2023/07/08 04:12:52;;;;;;;0.10;0.10;;;;;;;;;;5086908;28;20047;-50
2023/07/08 04:15:18;;;;;;;0.10;0.10;;;;;;;;;;5086758;28;20051;-52
2023/07/08 04:17:45;;;;;;;0.10;0.10;;;;;;;;;;5086157;28;20044;-52
2023/07/08 04:20:14;;;;;;;0.10;0.10;;;;;;;;;;5086804;28;20083;-51
2023/07/08 04:22:39;;;;;;;0.10;0.10;;;;;;;;;;5086801;28;20052;-52
2023/07/08 04:25:05;;;;;;;0.10;0.10;;;;;;;;;;5086239;28;20056;-52
2023/07/08 04:27:31;;;;;;;0.10;0.10;;;;;;;;;;5086816;28;20128;-52
2023/07/08 04:29:57;;;;;;;0.20;0.20;;;;;;;;;;5083122;28;20354;-52
2023/07/08 04:32:24;;;;;;;0.10;0.10;;;;;;;;;;5066465;28;20102;-52
2023/07/08 04:34:50;;;;;;;0.10;0.10;;;;;;;;;;5081329;28;20048;-52
2023/07/08 04:37:16;;;;;;;0.17;0.17;;;;;;;;;;5086513;28;20044;-52
2023/07/08 04:39:42;;;;;;;0.10;0.10;;;;;;;;;;5085221;28;20097;-51
2023/07/08 04:42:07;;;;;;;0.10;0.10;;;;;;;;;;5072260;28;20044;-52
2023/07/08 04:44:33;;;;;;;0.10;0.10;;;;;;;;;;5085916;28;20052;-51
2023/07/08 04:46:58;;;;;;;0.10;0.10;;;;;;;;;;5086560;28;20404;-51
2023/07/08 04:49:24;;;;;;;0.10;0.10;;;;;;;;;;5086241;28;20503;-51
2023/07/08 04:51:51;;;;;;;0.10;0.10;;;;;;;;;;5067559;28;20048;-52
2023/07/08 04:54:16;;;;;;;0.10;0.10;;;;;;;;;;5066569;28;20487;-52
2023/07/08 04:56:44;;;;;;;0.10;0.10;;;;;;;;;;5066435;28;20079;-52
2023/07/08 04:59:10;;;;;;;0.10;0.10;;;;;;;;;;5066133;28;20049;-52
2023/07/08 05:01:35;;;;;;;0.10;0.10;;;;;;;;;;5066031;28;20052;-51
2023/07/08 05:04:02;;;;;;;0.10;0.10;;;;;;;;;;5066281;28;20048;-51
2023/07/08 05:06:27;;;;;;;0.10;0.10;;;;;;;;;;5071365;28;20098;-52
2023/07/08 05:08:53;;;;;;;0.20;0.20;;;;;;;;;;5086005;28;20044;-50
2023/07/08 05:11:18;;;;;;;0.10;0.10;;;;;;;;;;5071416;28;20184;-52
2023/07/08 05:13:44;;;;;;;0.10;0.10;;;;;;;;;;5065559;28;20405;-52
2023/07/08 05:16:09;;;;;;;0.10;0.10;;;;;;;;;;5070878;28;20101;-52
2023/07/08 05:18:35;;;;;;;0.10;0.10;;;;;;;;;;5086202;28;20047;-52
2023/07/08 05:21:02;;;;;;;0.10;0.10;;;;;;;;;;5086457;28;20112;-52
2023/07/08 05:23:28;;;;;;;0.10;0.10;;;;;;;;;;5086835;28;20040;-51
2023/07/08 05:25:54;;;;;;;0.10;0.10;;;;;;;;;;5085597;28;20541;-52
2023/07/08 05:28:21;;;;;;;0.10;0.10;;;;;;;;;;5087012;28;20044;-52
2023/07/08 05:30:47;;;;;;;0.10;0.10;;;;;;;;;;5076555;28;20131;-52
2023/07/08 05:33:13;;;;;;;0.13;0.13;;;;;;;;;;5066544;28;20052;-51
2023/07/08 05:35:38;;;;;;;0.10;0.10;;;;;;;;;;5072981;28;20055;-52
2023/07/08 05:38:04;;;;;;;0.10;0.10;;;;;;;;;;5086001;28;20508;-53
2023/07/08 05:40:29;;;;;;;0.20;0.20;;;;;;;;;;5078477;28;20047;-52
2023/07/08 05:42:55;;;;;;;0.10;0.10;;;;;;;;;;5068920;28;20048;-52
2023/07/08 05:45:20;;;;;;;0.10;0.10;;;;;;;;;;5086183;28;20047;-51
2023/07/08 05:47:46;;;;;;;0.10;0.10;;;;;;;;;;5089390;28;20055;-52
2023/07/08 05:50:12;;;;;;;0.10;0.10;;;;;;;;;;5089435;28;20512;-51
2023/07/08 05:52:37;;;;;;;0.13;0.13;;;;;;;;;;5089624;28;20135;-52
2023/07/08 05:55:04;;;;;;;0.10;0.10;;;;;;;;;;5089744;28;20048;-51
2023/07/08 05:57:30;;;;;;;0.10;0.10;;;;;;;;;;5089631;28;20051;-51
2023/07/08 05:59:55;;;;;;;0.10;0.10;;;;;;;;;;5086449;28;20056;-52
2023/07/08 06:02:23;;;;;;;0.10;0.10;;;;;;;;;;5069197;28;20053;-52
2023/07/08 06:04:48;;;;;;;0.10;0.10;;;;;;;;;;5069258;28;20045;-52
2023/07/08 06:07:14;;;;;;;0.10;0.10;;;;;;;;;;5068945;28;20052;-53
2023/07/08 06:09:40;;;;;;;0.10;0.10;;;;;;;;;;5085064;28;20504;-52
2023/07/08 06:12:05;;;;;;;0.10;0.10;;;;;;;;;;5069256;28;20400;-52
2023/07/08 06:14:31;;;;;;;0.10;0.10;;;;;;;;;;5077244;28;20131;-51
2023/07/08 06:16:58;;;;;;;0.10;0.10;;;;;;;;;;5080697;28;20480;-53
2023/07/08 06:19:23;;;;;;;0.10;0.10;;;;;;;;;;5088556;28;20087;-52
2023/07/08 06:21:49;;;;;;;0.10;0.10;;;;;;;;;;5089312;28;20048;-52
2023/07/08 06:24:15;;;;;;;0.10;0.10;;;;;;;;;;5089124;28;20385;-52
2023/07/08 06:26:40;;;;;;;0.10;0.10;;;;;;;;;;5088641;28;20086;-52
2023/07/08 06:29:06;;;;;;;0.10;0.10;;;;;;;;;;5089399;28;20047;-51
2023/07/08 06:31:31;;;;;;;0.10;0.10;;;;;;;;;;5089552;28;20048;-52
2023/07/08 06:33:57;;;;;;;0.10;0.10;;;;;;;;;;5089842;28;20056;-52
2023/07/08 06:36:22;;;;;;;0.10;0.10;;;;;;;;;;5088949;28;20044;-52
2023/07/08 06:38:48;;;;;;;0.10;0.10;;;;;;;;;;5088066;28;20461;-53
2023/07/08 06:41:13;;;;;;;0.10;0.10;;;;;;;;;;5088716;28;20048;-53
2023/07/08 06:43:39;;;;;;;0.10;0.10;;;;;;;;;;5088721;28;20389;-52
2023/07/08 06:46:06;;;;;;;0.20;0.20;;;;;;;;;;5087546;28;20495;-53
2023/07/08 06:48:32;;;;;;;0.10;0.10;;;;;;;;;;5088315;28;20405;-51
2023/07/08 06:50:57;;;;;;;0.10;0.10;;;;;;;;;;5076744;28;20074;-52
2023/07/08 06:53:24;;;;;;;0.10;0.10;;;;;;;;;;5080217;28;20056;-51
2023/07/08 06:55:49;;;;;;;0.10;0.10;;;;;;;;;;5088382;28;20428;-52
2023/07/08 06:58:15;;;;;;;0.10;0.10;;;;;;;;;;5088476;28;20104;-51
2023/07/08 07:00:41;;;;;;;0.10;0.10;;;;;;;;;;5088041;28;20571;-51
2023/07/08 07:03:07;;;;;;;0.10;0.10;;;;;;;;;;5088027;28;20094;-51
2023/07/08 07:05:32;;;;;;;0.10;0.10;;;;;;;;;;5088355;28;20056;-53
2023/07/08 07:07:58;;;;;;;0.10;0.10;;;;;;;;;;5088138;28;20044;-52
2023/07/08 07:10:24;;;;;;;0.17;0.17;;;;;;;;;;5085699;28;20048;-52
2023/07/08 07:12:49;;;;;;;0.10;0.10;;;;;;;;;;5088218;28;20492;-52
2023/07/08 07:15:15;;;;;;;0.10;0.10;;;;;;;;;;5085221;28;20043;-51
2023/07/08 07:17:40;;;;;;;0.10;0.10;;;;;;;;;;5089970;28;20534;-52
2023/07/08 07:20:06;;;;;;;0.10;0.10;;;;;;;;;;5087655;28;20055;-51
2023/07/08 07:22:32;;;;;;;0.10;0.10;;;;;;;;;;5088116;28;20044;-53
2023/07/08 07:24:58;;;;;;;0.10;0.10;;;;;;;;;;5088041;28;20044;-52
2023/07/08 07:27:23;;;;;;;0.13;0.13;;;;;;;;;;5087369;28;20079;-52
2023/07/08 07:29:49;;;;;;;0.10;0.10;;;;;;;;;;5085552;28;20139;-52
2023/07/08 07:32:16;;;;;;;0.10;0.10;;;;;;;;;;5068277;28;20097;-52
2023/07/08 07:34:41;;;;;;;0.10;0.10;;;;;;;;;;5068275;28;20409;-53
2023/07/08 07:37:11;;;;;;;0.10;0.10;;;;;;;;;;5067945;28;20048;-52
2023/07/08 07:39:36;;;;;;;0.10;0.10;;;;;;;;;;5076896;28;20051;-51
2023/07/08 07:42:02;;;;;;;0.20;0.20;;;;;;;;;;5088327;28;20056;-52
2023/07/08 07:44:28;;;;;;;0.10;0.10;;;;;;;;;;5088073;28;20044;-52
2023/07/08 07:46:54;;;;;;;0.10;0.10;;;;;;;;;;5087397;28;20052;-52
2023/07/08 07:49:20;;;;;;;0.10;0.10;;;;;;;;;;5087521;28;20052;-52
2023/07/08 07:51:45;;;;;;;0.10;0.10;;;;;;;;;;5069597;28;20283;-52
2023/07/08 07:54:11;;;;;;;0.10;0.10;;;;;;;;;;5072009;28;20139;-52
2023/07/08 07:56:36;;;;;;;0.10;0.10;;;;;;;;;;5087668;28;20500;-50
2023/07/08 07:59:02;;;;;;;0.10;0.10;;;;;;;;;;5087155;28;20052;-52
2023/07/08 08:01:28;;;;;;;0.20;0.20;;;;;;;;;;5087598;28;20086;-52
2023/07/08 08:03:54;;;;;;;0.15;0.15;;;;;;;;;;5087802;28;20071;-52
2023/07/08 08:06:19;;;;;;;0.10;0.10;;;;;;;;;;5087207;28;20428;-52
2023/07/08 08:08:45;;;;;;;0.17;0.17;;;;;;;;;;5087720;28;20048;-51
2023/07/08 08:11:11;;;;;;;0.10;0.10;;;;;;;;;;5085472;28;20054;-52
2023/07/08 08:13:36;;;;;;;0.10;0.10;;;;;;;;;;5080089;28;20493;-52
2023/07/08 08:16:03;;;;;;;0.10;0.10;;;;;;;;;;5094552;28;20080;-52
2023/07/08 08:18:29;;;;;;;0.10;0.10;;;;;;;;;;5087171;28;20052;-53
2023/07/08 08:20:54;;;;;;;0.15;0.15;;;;;;;;;;5076068;28;20055;-52
2023/07/08 08:23:20;;;;;;;0.10;0.10;;;;;;;;;;5067493;28;20048;-52
2023/07/08 08:25:45;;;;;;;0.10;0.10;;;;;;;;;;5067090;28;20048;-51
2023/07/08 08:28:11;;;;;;;0.10;0.10;;;;;;;;;;5075952;28;20131;-52
2023/07/08 08:30:36;;;;;;;0.10;0.10;;;;;;;;;;5084983;28;20054;-51
2023/07/08 08:33:02;;;;;;;0.10;0.10;;;;;;;;;;5087708;28;20062;-51
2023/07/08 08:35:28;;;;;;;0.10;0.10;;;;;;;;;;5087530;28;20036;-52
2023/07/08 08:37:53;;;;;;;0.10;0.10;;;;;;;;;;5087373;28;20052;-51
2023/07/08 08:40:20;;;;;;;0.10;0.10;;;;;;;;;;5086603;28;20040;-52
2023/07/08 08:42:53;;;;;;;0.10;0.10;;;;;;;;;;5087090;28;20147;-50
2023/07/08 08:45:20;;;;;;;0.17;0.17;;;;;;;;;;5087219;28;20049;-52
2023/07/08 08:47:49;;;;;;;0.10;0.10;;;;;;;;;;5087067;28;20052;-52
2023/07/08 08:50:31;;;;;;;0.10;0.10;;;;;;;;;;5086356;28;20476;-52
2023/07/08 08:52:59;;;;;;;0.20;0.20;;;;;;;;;;5087213;28;20124;-51
2023/07/08 08:55:24;;;;;;;0.20;0.20;;;;;;;;;;5087343;28;20108;-52
2023/07/08 08:58:11;;;;;;;0.10;0.10;;;;;;;;;;5086386;28;20043;-50
2023/07/08 09:00:46;;;;;;;0.10;0.10;;;;;;;;;;5086591;28;20044;-51
2023/07/08 09:03:15;;;;;;;0.10;0.10;;;;;;;;;;5086923;28;20121;-52
2023/07/08 09:05:42;;;;;;;0.15;0.15;;;;;;;;;;5086771;28;20401;-51
2023/07/08 09:08:12;;;;;;;0.15;0.15;;;;;;;;;;5087287;28;20070;-52
2023/07/08 09:10:46;;;;;;;0.10;0.10;;;;;;;;;;5086012;28;20056;-51
2023/07/08 09:13:16;;;;;;;0.10;0.10;;;;;;;;;;5075383;28;20076;-52
2023/07/08 09:15:42;;;;;;;0.10;0.10;;;;;;;;;;5092003;28;20508;-52
2023/07/08 09:18:14;;;;;;;0.10;0.10;;;;;;;;;;5090130;28;20080;-52
2023/07/08 09:20:41;;;;;;;0.13;0.13;;;;;;;;;;5090243;28;20452;-52
2023/07/08 09:23:26;;;;;;;0.10;0.10;;;;;;;;;;5090643;28;20052;-52
2023/07/08 09:25:56;;;;;;;0.10;0.10;;;;;;;;;;5075164;28;20047;-51
2023/07/08 09:28:21;;;;;;;0.10;0.10;;;;;;;;;;5090252;28;20063;-52
2023/07/08 09:30:48;;;;;;;0.10;0.10;;;;;;;;;;5088757;28;20056;-52
2023/07/08 09:33:13;;;;;;;0.10;0.10;;;;;;;;;;5090218;28;20044;-52
2023/07/08 09:35:41;;;;;;;0.10;0.10;;;;;;;;;;5089641;28;20527;-51
2023/07/08 09:38:08;;;;;;;0.20;0.20;;;;;;;;;;5071365;28;20051;-52
2023/07/08 09:40:34;;;;;;;0.10;0.10;;;;;;;;;;5089060;28;20052;-52
2023/07/08 09:43:02;;;;;;;0.10;0.10;;;;;;;;;;5089343;28;20048;-52
2023/07/08 09:45:28;;;;;;;0.10;0.10;;;;;;;;;;5089190;28;20052;-51
2023/07/08 09:47:55;;;;;;;0.10;0.10;;;;;;;;;;5089279;28;20579;-52
2023/07/08 09:50:23;;;;;;;0.10;0.10;;;;;;;;;;5089335;28;20040;-52
2023/07/08 09:52:50;;;;;;;0.10;0.10;;;;;;;;;;5088039;28;20052;-51
2023/07/08 09:55:16;;;;;;;0.10;0.10;;;;;;;;;;5089415;28;20044;-52
2023/07/08 09:57:42;;;;;;;0.10;0.10;;;;;;;;;;5089236;28;20131;-55
2023/07/08 10:00:11;;;;;;;0.10;0.10;;;;;;;;;;5088545;28;20048;-51
2023/07/08 10:02:40;;;;;;;0.10;0.10;;;;;;;;;;5089725;28;20048;-52
2023/07/08 10:05:11;;;;;;;0.10;0.10;;;;;;;;;;5089381;28;20044;-52
2023/07/08 10:07:37;;;;;;;0.10;0.10;;;;;;;;;;5089003;28;20056;-52
2023/07/08 10:10:05;;;;;;;0.10;0.10;;;;;;;;;;5088685;28;20051;-51
2023/07/08 10:12:31;;;;;;;0.10;0.10;;;;;;;;;;5088642;28;20091;-52
2023/07/08 10:15:01;;;;;;;0.20;0.20;;;;;;;;;;5084422;28;20487;-52
2023/07/08 10:17:27;;;;;;;0.10;0.10;;;;;;;;;;5109485;28;20097;-52
2023/07/08 10:19:52;;;;;;;0.10;0.10;;;;;;;;;;5076005;28;20048;-55
2023/07/08 10:22:26;;;;;;;0.10;0.10;;;;;;;;;;5089080;28;20048;-52
2023/07/08 10:25:03;;;;;;;0.10;0.10;;;;;;;;;;5088539;28;20048;-51
2023/07/08 10:27:40;;;;;;;0.10;0.10;;;;;;;;;;5087777;28;20413;-52
2023/07/08 10:32:59;;;;;;;0.10;0.10;;;;;;;;;;5186097;27;20145;-49
2023/07/08 10:35:30;;;;;;;0.10;0.10;;;;;;;;;;5162658;27;20047;-49
2023/07/08 10:38:15;;;;;;;0.10;0.10;;;;;;;;;;5165201;27;20043;-50
2023/07/08 10:40:46;;;;;;;0.10;0.10;;;;;;;;;;5159912;27;20042;-50
2023/07/08 10:46:21;;;;;;;0.10;0.10;;;;;;;;;;5185133;27;20141;-50
2023/07/08 10:49:07;;;;;;;0.10;0.10;;;;;;;;;;5163885;27;20398;-49
2023/07/08 10:51:38;;;;;;;0.10;0.10;;;;;;;;;;5153171;27;20050;-49
2023/07/08 10:54:24;;;;;;;0.10;0.10;;;;;;;;;;5164708;27;20409;-49
2023/07/08 10:56:55;;;;;;;0.10;0.10;;;;;;;;;;5163874;27;20099;-50
2023/07/08 10:59:42;;;;;;;0.10;0.10;;;;;;;;;;5164808;27;20407;-49
2023/07/08 11:02:21;;;;;;;0.10;0.10;;;;;;;;;;5143846;27;20503;-49
2023/07/08 11:04:52;;;;;;;0.10;0.10;;;;;;;;;;5144601;27;20043;-50
2023/07/08 11:07:27;;;;;;;0.10;0.10;;;;;;;;;;5144699;27;20047;-48
2023/07/08 11:09:56;;;;;;;0.10;0.10;;;;;;;;;;5144181;27;20190;-49
2023/07/08 11:12:21;;;;;;;;;;;;;;;;;;5144933;27;20047;-49
2023/07/08 11:14:50;;;;;;;0.10;0.10;;;;;;;;;;5155175;27;20011;-50
2023/07/08 11:17:24;;;;;;;0.10;0.10;;;;;;;;;;5165227;27;20510;-48
2023/07/08 11:20:00;;;;;;;0.10;0.10;;;;;;;;;;5163142;27;20042;-49
2023/07/08 11:22:27;;;;;;;0.10;0.10;;;;;;;;;;5144639;27;20490;-49
2023/07/08 11:24:55;;;;;;;0.10;0.10;;;;;;;;;;5144452;27;20099;-49
2023/07/08 11:27:26;;;;;;;0.10;0.10;;;;;;;;;;5144459;27;20119;-49
2023/07/08 11:29:55;;;;;;;0.10;0.10;;;;;;;;;;5144223;27;20536;-49
2023/07/08 11:32:21;;;;;;;0.10;0.10;;;;;;;;;;5144631;27;20499;-50
2023/07/08 11:34:49;;;;;;;0.10;0.10;;;;;;;;;;5143980;27;20058;-49
2023/07/08 11:37:15;;;;;;;0.10;0.10;;;;;;;;;;5143851;27;20481;-49
2023/07/08 11:39:42;;;;;;;0.10;0.10;;;;;;;;;;5143997;27;20047;-50
2023/07/08 11:42:14;;;;;;;0.10;0.10;;;;;;;;;;5144643;27;20043;-50
2023/07/08 11:44:42;;;;;;;0.10;0.10;;;;;;;;;;5144028;27;20514;-50
2023/07/08 11:47:15;;;;;;;0.10;0.10;;;;;;;;;;5142817;27;20491;-49
2023/07/08 11:49:40;;;;;;;0.28;0.20;;;;;;;;;;5143402;27;20213;-49
2023/07/08 11:52:14;;;;;;;0.10;0.10;;;;;;;;;;5143985;27;20043;-50
2023/07/08 11:54:42;;;;;;;0.10;0.10;;;;;;;;;;5143444;27;20046;-48
2023/07/08 11:57:15;;;;;;;0.10;0.10;;;;;;;;;;5131380;27;20051;-50
2023/07/08 11:59:41;;;;;;;0.10;0.10;;;;;;;;;;5129260;27;20047;-49
2023/07/08 12:02:16;;;;;;;0.10;0.10;;;;;;;;;;5129407;28;20160;-48
2023/07/08 12:04:58;;;;;;;0.10;0.10;;;;;;;;;;5129635;27;20039;-49
2023/07/08 12:07:43;;;;;;;0.10;0.10;;;;;;;;;;5129334;27;20051;-50
2023/07/08 12:10:11;;;;;;;0.10;0.10;;;;;;;;;;5127940;27;20039;-50
2023/07/08 12:12:37;;;;;;;0.10;0.10;;;;;;;;;;5129113;27;20047;-49
2023/07/08 12:15:23;;;;;;;0.10;0.10;;;;;;;;;;5142643;27;20055;-49
2023/07/08 12:17:51;;;;;;;0.10;0.10;;;;;;;;;;5127803;27;20046;-49
2023/07/08 12:20:20;;;;;;;0.10;0.10;;;;;;;;;;5128437;28;20138;-50
2023/07/08 12:22:48;;;;;;;0.10;0.10;;;;;;;;;;5129803;28;20293;-49
2023/07/08 12:25:16;;;;;;;0.10;0.10;;;;;;;;;;5128670;28;20205;-49
2023/07/08 12:27:42;;;;;;;0.10;0.10;;;;;;;;;;5129101;28;20435;-50
2023/07/08 12:30:09;;;;;;;0.10;0.10;;;;;;;;;;5128718;28;20051;-49
2023/07/08 12:32:37;;;;;;;0.10;0.10;;;;;;;;;;5129114;28;20447;-50
2023/07/08 12:35:05;;;;;;;0.10;0.10;;;;;;;;;;5128979;28;20053;-49
2023/07/08 12:37:31;;;;;;;0.10;0.10;;;;;;;;;;5128402;28;20514;-49
2023/07/08 12:40:03;;;;;;;0.10;0.10;;;;;;;;;;5128566;28;20146;-49
2023/07/08 12:42:30;;;;;;;0.10;0.10;;;;;;;;;;5129496;28;20321;-50
2023/07/08 12:44:55;;;;;;;0.10;0.10;;;;;;;;;;5128786;28;20282;-50
2023/07/08 12:47:21;;;;;;;0.10;0.10;;;;;;;;;;5129047;28;20099;-49
2023/07/08 12:49:47;;;;;;;0.15;0.15;;;;;;;;;;5126490;28;20197;-49
2023/07/08 12:52:21;;;;;;;0.10;0.10;;;;;;;;;;5128944;28;20360;-47
2023/07/08 12:54:46;;;;;;;0.10;0.10;;;;;;;;;;5128833;27;20043;-50
2023/07/08 12:57:13;;;;;;;0.10;0.10;;;;;;;;;;5128516;28;20061;-50
2023/07/08 12:59:39;;;;;;;0.10;0.10;;;;;;;;;;5128652;27;20043;-49
2023/07/08 13:02:08;;;;;;;0.10;0.10;;;;;;;;;;5128649;28;20412;-48
2023/07/08 13:04:35;;;;;;;0.10;0.10;;;;;;;;;;5128343;28;20116;-50
2023/07/08 13:07:02;;;;;;;0.10;0.10;;;;;;;;;;5127872;27;20419;-50
2023/07/08 13:09:32;;;;;;;0.10;0.10;;;;;;;;;;5127689;28;20054;-49
2023/07/08 13:11:58;;;;;;;0.10;0.10;;;;;;;;;;5123527;27;20078;-48
2023/07/08 13:14:25;;;;;;;0.10;0.10;;;;;;;;;;5141079;27;20396;-49
2023/07/08 13:16:51;;;;;;;0.10;0.10;;;;;;;;;;5128574;28;20080;-49
2023/07/08 13:19:16;;;;;;;0.10;0.10;;;;;;;;;;5128469;28;20047;-49
2023/07/08 13:21:44;;;;;;;0.10;0.10;;;;;;;;;;5128237;28;20061;-50
2023/07/08 13:24:11;;;;;;;0.10;0.10;;;;;;;;;;5127812;28;20039;-49
2023/07/08 13:26:37;;;;;;;0.10;0.10;;;;;;;;;;5128057;28;20055;-49
2023/07/08 13:29:05;;;;;;;0.10;0.10;;;;;;;;;;5128360;28;20092;-48
2023/07/08 13:31:32;;;;;;;0.10;0.10;;;;;;;;;;5128053;28;20471;-50
2023/07/08 13:34:05;;;;;;;0.10;0.10;;;;;;;;;;5128394;28;20050;-50
2023/07/08 13:36:33;;;;;;;0.10;0.10;;;;;;;;;;5127866;28;20089;-49
2023/07/08 13:38:58;;;;;;;;;;;;;;;;;;5128023;28;20564;-50
2023/07/08 13:41:24;;;;;;;0.10;0.10;;;;;;;;;;5127499;28;19963;-50
2023/07/08 13:43:50;;;;;;;0.10;0.10;;;;;;;;;;5128425;28;20139;-49
2023/07/08 13:46:34;;;;;;;0.10;0.10;;;;;;;;;;5127868;27;20477;-49
2023/07/08 13:49:01;;;;;;;0.10;0.10;;;;;;;;;;5128039;27;20268;-48
2023/07/08 13:51:29;;;;;;;0.10;0.10;;;;;;;;;;5127305;28;20050;-49
2023/07/08 13:53:59;;;;;;;0.10;0.10;;;;;;;;;;5128404;28;20386;-50
2023/07/08 13:56:27;;;;;;;0.10;0.10;;;;;;;;;;5127475;27;20051;-50
2023/07/08 13:59:00;;;;;;;0.10;0.10;;;;;;;;;;5126943;27;20431;-49
2023/07/08 14:01:26;;;;;;;0.10;0.10;;;;;;;;;;5127494;28;20085;-49
2023/07/08 14:03:53;;;;;;;0.10;0.10;;;;;;;;;;5127931;28;20043;-49
2023/07/08 14:06:20;;;;;;;0.10;0.10;;;;;;;;;;5127462;28;20051;-49
2023/07/08 14:08:45;;;;;;;0.10;0.10;;;;;;;;;;5127765;27;20270;-49
2023/07/08 14:11:11;;;;;;;0.10;0.10;;;;;;;;;;5131675;27;20053;-49
2023/07/08 14:13:37;;;;;;;0.10;0.10;;;;;;;;;;5131560;27;20480;-49
2023/07/08 14:16:04;;;;;;;0.10;0.10;;;;;;;;;;5148515;27;20051;-49
2023/07/08 14:18:30;;;;;;;0.10;0.10;;;;;;;;;;5148212;27;20364;-50
2023/07/08 14:20:55;;;;;;;0.10;0.10;;;;;;;;;;5137140;27;20735;-50
2023/07/08 14:23:21;;;;;;;0.10;0.10;;;;;;;;;;5128448;28;20054;-46
2023/07/08 14:25:46;;;;;;;0.10;0.10;;;;;;;;;;5127677;28;20078;-47
2023/07/08 14:28:12;;;;;;;0.10;0.10;;;;;;;;;;5127789;28;20043;-45
2023/07/08 14:30:41;;;;;;;0.10;0.10;;;;;;;;;;5127224;28;20455;-45
2023/07/08 14:33:08;;;;;;;0.10;0.10;;;;;;;;;;5127684;28;20046;-46
2023/07/08 14:35:34;;;;;;;0.10;0.10;;;;;;;;;;5128515;28;20433;-46
2023/07/08 14:37:59;;;;;;;0.10;0.10;;;;;;;;;;5127684;28;20244;-46
2023/07/08 14:40:27;;;;;;;0.10;0.10;;;;;;;;;;5126432;28;20108;-46
2023/07/08 14:42:56;;;;;;;0.10;0.10;;;;;;;;;;5127440;28;20054;-45
2023/07/08 14:45:22;;;;;;;0.10;0.10;;;;;;;;;;5127111;28;20146;-47
2023/07/08 14:47:47;;;;;;;0.10;0.10;;;;;;;;;;5127591;28;20046;-47
2023/07/08 14:50:14;;;;;;;0.10;0.10;;;;;;;;;;5127229;28;20182;-48